Time;durP1;ratioP1;P1;durP2;ratioP2;P2;SDS_P1;SDS_P2;PMS_P1;PMS_P2;Temp;Humidity;BMP_temperature;BMP_pressure;BME280_temperature;BME280_humidity;BME280_pressure;Samples;Min_cycle;Max_cycle;Signal;HPM_P1;HPM_P2
2022/04/25 00:01:48;;;;;;;6.95;4.70;;;12.50;91.70;;;;;;7353402;19;110823;-91
2022/04/25 00:04:16;;;;;;;7.57;4.10;;;12.40;91.50;;;;;;7349738;19;108072;-90
2022/04/25 00:06:43;;;;;;;8.50;4.90;;;12.40;91.50;;;;;;7349691;19;110281;-91
2022/04/25 00:09:10;;;;;;;6.30;4.53;;;12.30;92.10;;;;;;7351788;19;108711;-89
2022/04/25 00:11:37;;;;;;;10.55;5.55;;;12.20;92.00;;;;;;7351321;19;108090;-91
2022/04/25 00:14:06;;;;;;;7.63;4.70;;;12.20;92.40;;;;;;7350626;19;109356;-90
2022/04/25 00:16:34;;;;;;;8.63;4.65;;;12.10;92.30;;;;;;7351521;19;109082;-90
2022/04/25 00:19:01;;;;;;;9.73;4.60;;;12.00;92.60;;;;;;7351600;19;108040;-90
2022/04/25 00:21:28;;;;;;;7.78;4.72;;;12.10;92.40;;;;;;7349426;19;107408;-91
2022/04/25 00:23:55;;;;;;;11.85;4.75;;;12.10;92.60;;;;;;7354108;19;109141;-91
2022/04/25 00:26:22;;;;;;;11.50;5.10;;;12.10;92.60;;;;;;7351336;19;108043;-91
2022/04/25 00:28:49;;;;;;;7.47;4.75;;;12.00;92.70;;;;;;7350638;19;108277;-91
2022/04/25 00:31:16;;;;;;;6.93;5.07;;;12.00;92.50;;;;;;7351058;19;108117;-91
2022/04/25 00:33:43;;;;;;;7.60;4.70;;;12.00;92.80;;;;;;7351795;19;108129;-92
2022/04/25 00:36:10;;;;;;;7.55;4.93;;;12.00;92.70;;;;;;7349273;19;110309;-91
2022/04/25 00:38:37;;;;;;;11.32;4.57;;;12.00;92.70;;;;;;7348142;19;107187;-90
2022/04/25 00:41:07;;;;;;;8.07;4.45;;;12.00;92.80;;;;;;7350825;19;107450;-91
2022/04/25 00:43:34;;;;;;;10.63;5.32;;;11.80;93.20;;;;;;7349793;19;108886;-91
2022/04/25 00:46:02;;;;;;;9.10;4.55;;;11.80;93.40;;;;;;7356476;19;106923;-91
2022/04/25 00:48:29;;;;;;;10.02;4.95;;;11.70;93.40;;;;;;7348044;19;109201;-90
2022/04/25 00:50:57;;;;;;;9.95;4.80;;;11.70;93.30;;;;;;7348482;19;107217;-89
2022/04/25 00:53:23;;;;;;;;;;;11.70;93.50;;;;;;7347359;19;108774;-91
2022/04/25 00:55:51;;;;;;;8.93;4.93;;;11.70;93.80;;;;;;7351880;19;108379;-91
2022/04/25 00:58:18;;;;;;;9.75;4.78;;;11.60;93.60;;;;;;7348090;19;107179;-91
2022/04/25 01:00:46;;;;;;;12.70;5.57;;;11.60;93.70;;;;;;7347854;19;107336;-91
2022/04/25 01:03:13;;;;;;;11.43;5.35;;;11.60;93.70;;;;;;7349099;19;109651;-91
2022/04/25 01:05:41;;;;;;;12.32;5.63;;;11.60;93.80;;;;;;7346975;19;108122;-90
2022/04/25 01:08:08;;;;;;;11.43;5.68;;;11.50;94.10;;;;;;7350646;19;108783;-91
2022/04/25 01:10:35;;;;;;;11.18;5.93;;;11.50;94.30;;;;;;7348509;19;107918;-90
2022/04/25 01:13:02;;;;;;;;;;;11.50;94.40;;;;;;7349191;19;107573;-91
2022/04/25 01:15:30;;;;;;;10.25;5.38;;;11.40;94.90;;;;;;7352673;19;108951;-90
2022/04/25 01:17:57;;;;;;;10.05;5.88;;;11.30;94.80;;;;;;7347219;19;107068;-92
2022/04/25 01:20:25;;;;;;;9.75;6.00;;;11.30;94.70;;;;;;7349984;19;108163;-92
2022/04/25 01:27:15;;;;;;;11.88;5.32;;;11.30;95.20;;;;;;7348338;19;109130;-91
2022/04/25 01:28:30;;;;;;;11.88;6.45;;;11.20;95.20;;;;;;7350147;19;111141;-91
2022/04/25 01:30:57;;;;;;;16.77;6.47;;;11.20;95.10;;;;;;7355493;19;108883;-91
2022/04/25 01:33:24;;;;;;;10.95;5.65;;;11.20;95.30;;;;;;7349803;19;107529;-91
2022/04/25 01:35:51;;;;;;;9.45;6.28;;;11.10;95.10;;;;;;7347819;19;107372;-91
2022/04/25 01:38:18;;;;;;;8.95;6.03;;;11.10;95.70;;;;;;7348301;19;107109;-91
2022/04/25 01:40:45;;;;;;;8.40;6.07;;;11.00;96.00;;;;;;7347777;19;108012;-90
2022/04/25 01:43:12;;;;;;;9.48;6.13;;;11.00;95.80;;;;;;7348768;19;108133;-89
2022/04/25 01:45:40;;;;;;;10.88;6.00;;;11.00;96.10;;;;;;7346989;19;110477;-91
2022/04/25 01:48:08;;;;;;;9.65;6.50;;;11.00;96.20;;;;;;7347802;19;107399;-92
2022/04/25 01:50:35;;;;;;;10.52;6.28;;;11.00;96.40;;;;;;7351079;19;112097;-91
2022/04/25 01:53:02;;;;;;;10.98;6.47;;;10.90;96.70;;;;;;7345943;19;108654;-90
2022/04/25 01:55:29;;;;;;;13.27;7.00;;;10.90;96.80;;;;;;7344841;19;107902;-91
2022/04/25 01:57:56;;;;;;;12.95;6.60;;;10.80;96.90;;;;;;7347244;19;109560;-90
2022/04/25 02:00:23;;;;;;;13.45;6.97;;;10.80;96.80;;;;;;7345219;19;108553;-91
2022/04/25 02:02:50;;;;;;;13.38;7.40;;;10.80;96.90;;;;;;7347353;19;108126;-92
2022/04/25 02:05:17;;;;;;;13.40;7.40;;;10.80;97.30;;;;;;7346647;19;107575;-90
2022/04/25 02:07:45;;;;;;;9.68;6.57;;;10.80;97.40;;;;;;7345477;19;107512;-92
2022/04/25 02:10:12;;;;;;;19.08;7.13;;;10.80;97.40;;;;;;7348724;19;107735;-91
2022/04/25 02:12:39;;;;;;;9.20;6.60;;;10.70;97.70;;;;;;7353892;19;107386;-91
2022/04/25 02:15:12;;;;;;;10.10;7.05;;;10.70;97.60;;;;;;7346759;19;109192;-91
2022/04/25 02:17:44;;;;;;;11.88;7.20;;;10.60;98.00;;;;;;7346733;19;107140;-89
2022/04/25 02:20:12;;;;;;;12.57;6.38;;;10.50;98.20;;;;;;7347327;19;108219;-90
2022/04/25 02:22:39;;;;;;;10.70;6.47;;;10.50;98.10;;;;;;7347590;19;109328;-90
2022/04/25 02:25:07;;;;;;;10.30;6.50;;;10.40;98.60;;;;;;7344182;19;107253;-91
2022/04/25 02:27:34;;;;;;;12.18;7.70;;;10.40;98.80;;;;;;7345450;19;108215;-90
2022/04/25 02:30:01;;;;;;;;;;;10.40;98.80;;;;;;7346886;19;107986;-92
2022/04/25 02:32:28;;;;;;;8.10;6.40;;;10.30;99.80;;;;;;7346966;19;108324;-90
2022/04/25 02:34:55;;;;;;;11.25;7.53;;;10.30;98.80;;;;;;7350832;19;108250;-91
2022/04/25 02:37:24;;;;;;;10.18;7.28;;;10.30;99.30;;;;;;7347153;19;107262;-92
2022/04/25 02:39:51;;;;;;;15.45;7.95;;;10.20;99.30;;;;;;7348196;19;107287;-91
2022/04/25 02:42:18;;;;;;;12.15;8.55;;;10.20;99.40;;;;;;7346282;19;107824;-90
2022/04/25 02:44:45;;;;;;;14.68;7.72;;;10.20;99.80;;;;;;7344165;19;111470;-91
2022/04/25 02:47:13;;;;;;;13.05;7.45;;;10.20;99.70;;;;;;7347616;19;107997;-92
2022/04/25 02:49:40;;;;;;;10.98;7.30;;;10.20;99.60;;;;;;7345622;19;109167;-91
2022/04/25 02:52:07;;;;;;;13.07;8.15;;;10.30;99.90;;;;;;7346398;19;108637;-89
2022/04/25 02:54:34;;;;;;;10.90;7.82;;;10.20;99.90;;;;;;7344666;19;107309;-91
2022/04/25 02:57:01;;;;;;;13.95;8.02;;;10.10;99.90;;;;;;7350191;19;109348;-91
2022/04/25 02:59:28;;;;;;;14.60;8.60;;;10.20;99.80;;;;;;7346585;19;109091;-91
2022/04/25 03:01:55;;;;;;;13.75;7.90;;;10.10;99.90;;;;;;7349297;19;109303;-92
2022/04/25 03:04:22;;;;;;;14.80;8.13;;;10.10;99.90;;;;;;7361250;19;108195;-92
2022/04/25 03:06:50;;;;;;;14.95;8.88;;;10.10;99.90;;;;;;7358204;19;108843;-91
2022/04/25 03:09:18;;;;;;;14.25;8.13;;;10.00;99.90;;;;;;7360321;19;109055;-92
2022/04/25 03:11:45;;;;;;;20.65;7.93;;;10.00;99.90;;;;;;7361623;19;107295;-91
2022/04/25 03:14:12;;;;;;;17.90;8.52;;;10.00;99.90;;;;;;7360289;19;107990;-92
2022/04/25 03:16:40;;;;;;;15.00;7.78;;;10.10;99.90;;;;;;7359304;19;108936;-91
2022/04/25 03:19:09;;;;;;;12.93;8.38;;;10.10;99.90;;;;;;7364793;19;107922;-91
2022/04/25 03:21:36;;;;;;;14.05;8.48;;;10.00;99.90;;;;;;7360482;19;108886;-91
2022/04/25 03:24:03;;;;;;;18.30;8.73;;;10.00;99.90;;;;;;7359971;19;107927;-91
2022/04/25 03:26:30;;;;;;;11.02;8.68;;;9.90;99.90;;;;;;7357762;19;107489;-91
2022/04/25 03:28:57;;;;;;;13.00;8.57;;;10.00;99.90;;;;;;7360353;19;108964;-91
2022/04/25 03:31:24;;;;;;;;;;;9.90;99.90;;;;;;7360721;19;107161;-91
2022/04/25 03:33:52;;;;;;;18.27;8.20;;;9.90;99.90;;;;;;7363798;19;108433;-92
2022/04/25 03:36:19;;;;;;;17.55;8.98;;;9.90;99.90;;;;;;7357039;19;109136;-92
2022/04/25 03:38:46;;;;;;;14.75;8.95;;;9.80;99.90;;;;;;7360326;19;108422;-91
2022/04/25 03:41:13;;;;;;;12.50;8.55;;;9.70;99.90;;;;;;7363230;19;107170;-91
2022/04/25 03:43:40;;;;;;;14.48;8.70;;;9.70;99.90;;;;;;7359041;19;107084;-91
2022/04/25 03:46:07;;;;;;;;;;;9.60;99.90;;;;;;7356749;19;108398;-91
2022/04/25 03:48:34;;;;;;;11.70;8.30;;;9.50;99.90;;;;;;7363403;19;108005;-92
2022/04/25 03:51:01;;;;;;;14.10;8.48;;;9.50;99.90;;;;;;7358854;19;106964;-92
2022/04/25 03:53:28;;;;;;;;;;;9.50;99.90;;;;;;7360125;19;108525;-91
2022/04/25 03:58:40;;;;;;;13.13;8.43;;;9.50;99.90;;;;;;7359239;19;107282;-91
2022/04/25 04:01:08;;;;;;;10.60;8.23;;;9.40;99.90;;;;;;7361347;19;111880;-91
2022/04/25 04:03:35;;;;;;;15.45;8.70;;;9.40;99.90;;;;;;7359661;19;107440;-91
2022/04/25 04:06:03;;;;;;;12.95;8.30;;;9.40;99.90;;;;;;7351142;19;108290;-92
2022/04/25 04:08:30;;;;;;;16.00;8.85;;;9.40;99.90;;;;;;7358473;19;108021;-91
2022/04/25 04:10:57;;;;;;;12.02;8.13;;;9.50;99.90;;;;;;7360229;19;107184;-91
2022/04/25 04:13:25;;;;;;;14.18;9.00;;;9.50;99.90;;;;;;7354954;19;111272;-92
2022/04/25 04:15:53;;;;;;;14.70;8.32;;;9.50;99.90;;;;;;7351375;19;109388;-91
2022/04/25 04:18:21;;;;;;;13.10;8.50;;;9.50;99.90;;;;;;7350192;19;108604;-91
2022/04/25 04:20:48;;;;;;;16.40;7.95;;;9.40;99.90;;;;;;7349222;19;108050;-90
2022/04/25 04:23:15;;;;;;;12.30;7.65;;;9.40;99.90;;;;;;7356206;19;109456;-91
2022/04/25 04:25:42;;;;;;;14.70;7.95;;;9.40;99.90;;;;;;7350205;19;107282;-91
2022/04/25 04:28:09;;;;;;;14.05;7.97;;;9.40;99.90;;;;;;7350664;19;107746;-91
2022/04/25 04:30:36;;;;;;;13.57;8.30;;;9.40;99.90;;;;;;7351485;19;107757;-91
2022/04/25 04:33:05;;;;;;;12.98;8.55;;;9.30;99.90;;;;;;7350972;19;106938;-91
2022/04/25 04:38:18;;;;;;;12.90;8.15;;;9.30;99.90;;;;;;7349030;19;108459;-92
2022/04/25 04:40:45;;;;;;;17.70;9.35;;;9.30;99.90;;;;;;7349910;19;107482;-92
2022/04/25 04:43:12;;;;;;;15.48;8.32;;;9.20;99.90;;;;;;7350366;19;107910;-91
2022/04/25 04:45:42;;;;;;;19.35;8.80;;;9.30;99.90;;;;;;7345091;19;110938;-91
2022/04/25 04:48:09;;;;;;;21.27;9.77;;;9.30;99.90;;;;;;7336198;19;109851;-91
2022/04/25 04:50:36;;;;;;;;;;;9.30;99.90;;;;;;7338554;19;110698;-91
2022/04/25 04:53:03;;;;;;;11.13;8.80;;;9.20;99.90;;;;;;7340701;19;108181;-91
2022/04/25 04:55:31;;;;;;;14.23;8.45;;;9.20;99.90;;;;;;7334982;19;109262;-91
2022/04/25 04:57:58;;;;;;;17.55;9.73;;;9.30;99.90;;;;;;7345767;19;107004;-93
2022/04/25 05:00:27;;;;;;;18.70;9.95;;;9.30;99.90;;;;;;7347888;19;107288;-93
2022/04/25 05:02:54;;;;;;;21.45;10.20;;;9.20;99.90;;;;;;7349724;19;108054;-92
2022/04/25 05:05:21;;;;;;;15.65;9.75;;;9.20;99.90;;;;;;7345653;19;109925;-93
2022/04/25 05:07:48;;;;;;;17.52;9.60;;;9.20;99.90;;;;;;7354592;19;109682;-92
2022/04/25 05:10:15;;;;;;;;;;;9.20;99.90;;;;;;7350982;19;108082;-90
2022/04/25 05:12:51;;;;;;;17.50;10.35;;;9.30;99.90;;;;;;7347783;19;107266;-93
2022/04/25 05:15:18;;;;;;;16.75;10.48;;;9.30;99.90;;;;;;7345978;19;110305;-92
2022/04/25 05:17:48;;;;;;;23.45;10.13;;;9.30;99.90;;;;;;7345136;19;111511;-92
2022/04/25 05:20:17;;;;;;;18.92;10.25;;;9.30;99.90;;;;;;7345657;19;111802;-93
2022/04/25 05:22:47;;;;;;;15.32;9.60;;;9.30;99.90;;;;;;7345119;19;110001;-93
2022/04/25 05:25:16;;;;;;;19.00;11.32;;;9.30;99.90;;;;;;7348076;19;110730;-94
2022/04/25 05:27:48;;;;;;;22.77;10.57;;;9.30;99.90;;;;;;7340954;19;113655;-93
2022/04/25 05:30:17;;;;;;;16.40;10.05;;;9.40;99.90;;;;;;7349609;19;109993;-94
2022/04/25 05:32:53;;;;;;;15.25;10.77;;;9.50;99.90;;;;;;7342828;19;109905;-90
2022/04/25 05:35:23;;;;;;;16.88;10.32;;;9.50;99.90;;;;;;7342283;19;110165;-91
2022/04/25 05:37:51;;;;;;;18.10;9.93;;;9.60;99.90;;;;;;7343515;19;111411;-90
2022/04/25 05:40:19;;;;;;;18.88;11.27;;;9.70;99.90;;;;;;7344499;19;108572;-91
2022/04/25 05:42:47;;;;;;;16.35;10.75;;;9.80;99.90;;;;;;7341478;19;111322;-91
2022/04/25 05:45:16;;;;;;;19.63;11.48;;;9.80;99.90;;;;;;7341303;19;112008;-96
2022/04/25 05:47:43;;;;;;;17.75;11.20;;;9.90;99.90;;;;;;7344885;19;112760;-96
2022/04/25 05:52:59;;;;;;;18.33;12.05;;;9.90;99.90;;;;;;7350008;19;111269;-95
2022/04/25 05:55:30;;;;;;;21.73;11.65;;;9.90;99.90;;;;;;7346299;19;111550;-95
2022/04/25 05:58:02;;;;;;;23.73;11.02;;;10.00;99.90;;;;;;7343526;19;114361;-93
2022/04/25 06:00:30;;;;;;;20.38;12.10;;;10.00;99.90;;;;;;7342806;19;115724;-93
2022/04/25 06:02:58;;;;;;;20.75;12.20;;;10.00;99.90;;;;;;7343290;19;111094;-92
2022/04/25 06:05:26;;;;;;;23.40;12.38;;;10.00;99.90;;;;;;7344280;19;114719;-93
2022/04/25 06:07:54;;;;;;;21.92;12.57;;;9.90;99.90;;;;;;7340885;19;115744;-92
2022/04/25 06:10:25;;;;;;;18.27;11.95;;;10.00;99.90;;;;;;7344044;19;109756;-93
2022/04/25 06:12:54;;;;;;;21.67;12.15;;;9.90;99.90;;;;;;7348534;19;114401;-93
2022/04/25 06:15:26;;;;;;;25.25;11.65;;;10.00;99.90;;;;;;7342999;19;110747;-93
2022/04/25 06:17:55;;;;;;;14.50;10.85;;;10.10;99.90;;;;;;7343111;19;112382;-93
2022/04/25 06:20:30;;;;;;;20.05;12.27;;;10.20;99.90;;;;;;7343992;19;113885;-92
2022/04/25 06:23:02;;;;;;;21.42;12.45;;;10.20;99.90;;;;;;7342575;19;110611;-94
2022/04/25 06:25:37;;;;;;;20.75;11.95;;;10.20;99.90;;;;;;7339942;19;110207;-92
2022/04/25 06:28:04;;;;;;;23.77;12.07;;;10.20;99.90;;;;;;7340622;19;112151;-92
2022/04/25 06:30:32;;;;;;;20.52;11.80;;;10.30;99.90;;;;;;7339745;19;111981;-92
2022/04/25 06:33:00;;;;;;;18.92;11.43;;;10.30;99.90;;;;;;7343138;19;113758;-92
2022/04/25 06:35:28;;;;;;;23.52;11.77;;;10.30;99.90;;;;;;7349823;19;112531;-93
2022/04/25 06:37:55;;;;;;;24.50;12.55;;;10.30;99.90;;;;;;7340643;19;111738;-92
2022/04/25 06:40:22;;;;;;;21.33;11.82;;;10.40;99.90;;;;;;7341845;19;111680;-92
2022/04/25 06:42:51;;;;;;;16.73;11.88;;;10.50;99.90;;;;;;7341509;19;110194;-92
2022/04/25 06:45:18;;;;;;;22.67;11.90;;;10.60;99.90;;;;;;7343646;19;110149;-92
2022/04/25 06:47:45;;;;;;;20.10;12.32;;;10.60;99.90;;;;;;7340594;19;110867;-92
2022/04/25 06:50:13;;;;;;;27.02;12.07;;;10.70;99.90;;;;;;7340510;19;110393;-92
2022/04/25 06:52:40;;;;;;;18.55;11.95;;;10.70;99.90;;;;;;7341017;19;110421;-92
2022/04/25 06:55:08;;;;;;;20.42;12.35;;;10.80;99.90;;;;;;7341022;19;111885;-92
2022/04/25 06:57:35;;;;;;;23.42;12.75;;;10.80;99.90;;;;;;7346692;19;111159;-92
2022/04/25 07:00:11;;;;;;;25.38;11.85;;;10.70;99.90;;;;;;7342570;19;110435;-92
2022/04/25 07:05:35;;;;;;;26.48;13.07;;;10.60;99.90;;;;;;7340074;19;110562;-92
2022/04/25 07:08:03;;;;;;;19.25;13.05;;;10.60;99.90;;;;;;7338004;19;110635;-92
2022/04/25 07:10:30;;;;;;;19.88;12.75;;;10.70;99.90;;;;;;7342131;19;109941;-92
2022/04/25 07:12:57;;;;;;;26.20;13.18;;;10.80;99.90;;;;;;7342407;19;110775;-93
2022/04/25 07:15:24;;;;;;;22.00;13.25;;;10.90;99.90;;;;;;7342384;19;112188;-92
2022/04/25 07:17:55;;;;;;;21.85;13.07;;;11.00;99.90;;;;;;7343691;19;110274;-93
2022/04/25 07:20:24;;;;;;;18.00;13.85;;;11.00;99.90;;;;;;7346057;19;113115;-92
2022/04/25 07:31:11;;;;;;;18.23;13.27;;;11.20;99.90;;;;;;7342644;19;110126;-92
2022/04/25 07:33:43;;;;;;;21.27;13.63;;;11.40;99.90;;;;;;7341834;19;110371;-93
2022/04/25 07:36:12;;;;;;;21.25;14.95;;;11.50;99.90;;;;;;7342171;19;110985;-92
2022/04/25 07:38:44;;;;;;;21.60;14.15;;;11.50;99.90;;;;;;7340999;19;110404;-92
2022/04/25 07:41:13;;;;;;;19.55;14.27;;;11.40;99.90;;;;;;7341823;19;111681;-93
2022/04/25 07:43:41;;;;;;;20.25;13.93;;;11.40;99.90;;;;;;7346037;19;111946;-93
2022/04/25 07:46:08;;;;;;;22.60;14.88;;;11.50;99.90;;;;;;7338947;19;112939;-93
2022/04/25 07:48:36;;;;;;;20.75;13.57;;;11.60;99.90;;;;;;7338159;19;112117;-93
2022/04/25 07:51:03;;;;;;;20.15;13.98;;;11.60;99.90;;;;;;7346668;19;110153;-92
2022/04/25 07:53:30;;;;;;;22.88;13.65;;;11.70;99.90;;;;;;7348065;19;110581;-92
2022/04/25 07:55:58;;;;;;;20.20;14.52;;;11.70;99.90;;;;;;7344643;19;111516;-93
2022/04/25 07:58:25;;;;;;;24.73;14.57;;;11.70;99.90;;;;;;7346388;19;110460;-93
2022/04/25 08:00:52;;;;;;;19.70;14.00;;;11.50;99.90;;;;;;7346789;19;110088;-92
2022/04/25 08:03:25;;;;;;;25.02;14.85;;;11.50;99.90;;;;;;7351857;19;111229;-93
2022/04/25 08:05:53;;;;;;;23.00;13.88;;;11.40;99.90;;;;;;7346330;19;114908;-93
2022/04/25 08:08:20;;;;;;;22.80;14.45;;;11.40;99.90;;;;;;7344339;19;112156;-92
2022/04/25 08:10:47;;;;;;;21.83;15.27;;;11.40;99.90;;;;;;7345883;19;110313;-93
2022/04/25 08:18:46;;;;;;;23.60;15.32;;;11.70;99.90;;;;;;7348196;19;110497;-92
2022/04/25 08:21:14;;;;;;;;;;;11.80;99.90;;;;;;7349283;19;111528;-93
2022/04/25 08:23:45;;;;;;;22.17;14.38;;;11.80;99.90;;;;;;7353549;19;107960;-93
2022/04/25 08:26:12;;;;;;;19.95;14.13;;;11.80;99.90;;;;;;7351120;19;110335;-93
2022/04/25 08:28:41;;;;;;;19.33;13.90;;;12.00;99.90;;;;;;7344300;19;110787;-93
2022/04/25 08:31:28;;;;;;;;;;;12.30;99.90;;;;;;7348287;19;110410;-90
2022/04/25 08:33:56;;;;;;;27.83;14.35;;;12.30;99.90;;;;;;7355599;19;111841;-93
2022/04/25 08:36:23;;;;;;;22.25;13.98;;;12.40;99.90;;;;;;7345594;19;111605;-92
2022/04/25 08:38:51;;;;;;;27.33;14.68;;;12.50;99.90;;;;;;7345686;19;111631;-93
2022/04/25 08:41:24;;;;;;;22.00;14.38;;;12.70;99.90;;;;;;7345223;19;112226;-93
2022/04/25 08:43:54;;;;;;;17.58;13.20;;;12.80;99.90;;;;;;7345405;19;112266;-92
2022/04/25 08:46:22;;;;;;;18.00;12.75;;;12.90;99.90;;;;;;7344966;19;110516;-93
2022/04/25 08:48:51;;;;;;;18.50;12.13;;;13.00;99.90;;;;;;7349063;19;110637;-92
2022/04/25 08:51:21;;;;;;;19.40;13.10;;;13.20;99.90;;;;;;7346784;19;110625;-93
2022/04/25 08:56:27;;;;;;;16.13;12.52;;;13.40;99.90;;;;;;7343506;19;110248;-91
2022/04/25 08:58:56;;;;;;;16.58;12.10;;;13.60;99.90;;;;;;7344864;19;109834;-91
2022/04/25 09:01:23;;;;;;;14.55;10.60;;;13.80;99.90;;;;;;7344176;19;113752;-92
2022/04/25 09:03:50;;;;;;;14.07;11.05;;;13.90;99.90;;;;;;7344882;19;111530;-92
2022/04/25 09:06:17;;;;;;;16.75;10.40;;;14.10;99.90;;;;;;7343129;19;110088;-92
2022/04/25 09:08:44;;;;;;;13.20;11.10;;;14.20;99.80;;;;;;7342653;19;111874;-92
2022/04/25 09:13:58;;;;;;;14.60;10.90;;;14.20;99.20;;;;;;7345280;19;111014;-92
2022/04/25 09:16:25;;;;;;;14.90;11.18;;;14.10;99.10;;;;;;7345654;19;113424;-92
2022/04/25 09:18:52;;;;;;;12.80;10.55;;;14.00;99.90;;;;;;7344042;19;110462;-92
2022/04/25 09:21:19;;;;;;;11.20;9.70;;;14.30;99.90;;;;;;7337234;19;111843;-91
2022/04/25 09:23:46;;;;;;;14.50;10.35;;;14.40;98.50;;;;;;7342724;19;108210;-92
2022/04/25 09:28:50;;;;;;;18.20;12.60;;;14.00;99.00;;;;;;7341568;19;138125;-95
2022/04/25 09:31:20;;;;;;;13.75;10.40;;;14.00;99.30;;;;;;7347343;19;113751;-95
2022/04/25 09:33:48;;;;;;;12.60;11.30;;;14.10;98.90;;;;;;7353364;19;110516;-95
2022/04/25 09:36:15;;;;;;;16.15;10.77;;;14.20;98.80;;;;;;7347564;19;110662;-94
2022/04/25 09:38:43;;;;;;;17.60;11.63;;;14.20;98.80;;;;;;7347916;19;111109;-94
2022/04/25 09:41:15;;;;;;;15.73;11.10;;;14.30;99.00;;;;;;7348792;19;112256;-96
2022/04/25 09:43:44;;;;;;;13.23;9.90;;;14.40;99.50;;;;;;7348119;19;112981;-94
2022/04/25 09:46:14;;;;;;;13.23;11.10;;;14.70;99.00;;;;;;7351334;19;110687;-94
2022/04/25 09:49:02;;;;;;;14.50;11.55;;;14.80;98.50;;;;;;7347199;19;110437;-94
2022/04/25 09:51:31;;;;;;;14.18;11.20;;;15.00;98.30;;;;;;7348635;19;113195;-95
2022/04/25 09:54:01;;;;;;;13.68;10.52;;;14.90;97.80;;;;;;7347883;19;111917;-94
2022/04/25 09:56:30;;;;;;;14.80;11.23;;;14.80;97.80;;;;;;7352941;19;114282;-94
2022/04/25 09:59:06;;;;;;;17.23;11.73;;;14.60;98.00;;;;;;7347495;19;110868;-92
2022/04/25 10:01:36;;;;;;;10.65;9.50;;;14.80;98.00;;;;;;7347589;19;112598;-93
2022/04/25 10:04:06;;;;;;;15.10;10.30;;;14.90;97.40;;;;;;7351250;19;109808;-94
2022/04/25 10:06:35;;;;;;;10.55;9.45;;;14.70;97.10;;;;;;7347675;19;112093;-93
2022/04/25 10:09:07;;;;;;;10.93;8.95;;;14.70;97.20;;;;;;7349230;19;112401;-92
2022/04/25 10:11:39;;;;;;;14.00;9.63;;;14.80;97.10;;;;;;7348965;19;108364;-94
2022/04/25 10:14:07;;;;;;;14.10;10.88;;;14.80;96.80;;;;;;7351321;19;110399;-92
2022/04/25 10:16:34;;;;;;;14.57;11.48;;;14.90;97.20;;;;;;7353069;19;109751;-93
2022/04/25 10:19:02;;;;;;;13.60;11.93;;;15.20;97.50;;;;;;7347061;19;110561;-92
2022/04/25 10:21:31;;;;;;;21.45;13.30;;;15.40;97.00;;;;;;7345584;19;113578;-92
2022/04/25 10:24:02;;;;;;;17.30;12.48;;;15.30;96.80;;;;;;7346304;19;112870;-93
2022/04/25 10:26:30;;;;;;;15.55;11.40;;;15.10;96.80;;;;;;7345290;19;110239;-93
2022/04/25 10:29:02;;;;;;;17.05;12.93;;;15.10;96.90;;;;;;7345138;19;112715;-94
2022/04/25 10:31:38;;;;;;;15.73;12.23;;;15.10;97.10;;;;;;7346162;19;113029;-94
2022/04/25 10:34:07;;;;;;;19.02;13.70;;;15.00;97.50;;;;;;7344628;19;110802;-93
2022/04/25 10:36:37;;;;;;;19.58;14.82;;;14.80;98.00;;;;;;7344736;19;113173;-93
2022/04/25 10:39:14;;;;;;;25.40;14.38;;;14.90;98.50;;;;;;7350970;19;111897;-92
2022/04/25 10:44:28;;;;;;;17.80;15.00;;;14.90;98.00;;;;;;7334519;19;110253;-88
2022/04/25 10:47:04;;;;;;;21.35;15.02;;;14.90;98.30;;;;;;7334490;19;111078;-88
2022/04/25 10:49:42;;;;;;;20.67;15.57;;;15.00;98.00;;;;;;7335107;19;111289;-89
2022/04/25 10:55:23;;;;;;;23.42;14.82;;;14.90;98.90;;;;;;7337374;19;111484;-95
2022/04/25 10:58:02;;;;;;;21.25;15.07;;;15.10;98.90;;;;;;7329488;19;111749;-85
2022/04/25 11:00:36;;;;;;;24.45;15.27;;;14.80;98.90;;;;;;7332741;19;111646;-85
2022/04/25 11:03:04;;;;;;;23.75;15.73;;;14.50;99.40;;;;;;7340795;19;110372;-84
2022/04/25 11:05:31;;;;;;;21.45;15.23;;;14.50;99.50;;;;;;7336150;19;112487;-85
2022/04/25 11:08:19;;;;;;;23.05;15.82;;;14.40;99.60;;;;;;7335898;19;111027;-85
2022/04/25 11:10:51;;;;;;;22.38;15.35;;;14.60;99.90;;;;;;7335712;19;111635;-86
2022/04/25 11:13:21;;;;;;;22.33;15.43;;;14.80;99.60;;;;;;7334817;19;112219;-84
2022/04/25 11:15:52;;;;;;;25.85;15.13;;;14.80;99.30;;;;;;7334781;19;110209;-85
2022/04/25 11:18:41;;;;;;;21.40;15.20;;;14.90;99.90;;;;;;7336252;19;111885;-84
2022/04/25 11:21:11;;;;;;;18.88;14.13;;;15.20;99.10;;;;;;7336884;19;111567;-84
2022/04/25 11:23:44;;;;;;;15.13;12.38;;;15.20;98.90;;;;;;7339791;19;111792;-85
2022/04/25 11:26:36;;;;;;;19.38;13.52;;;15.10;98.40;;;;;;7347914;19;111769;-85
2022/04/25 11:29:11;;;;;;;17.33;13.98;;;14.90;98.40;;;;;;7340683;19;110179;-84
2022/04/25 11:31:39;;;;;;;13.52;12.13;;;14.90;98.90;;;;;;7342783;19;113164;-85
2022/04/25 11:34:11;;;;;;;14.45;10.73;;;15.00;98.60;;;;;;7342965;19;110673;-84
2022/04/25 11:36:44;;;;;;;12.25;11.00;;;14.80;98.60;;;;;;7344121;19;110602;-85
2022/04/25 11:42:03;;;;;;;14.35;11.75;;;14.60;98.70;;;;;;7343932;19;112053;-84
2022/04/25 11:44:34;;;;;;;14.45;11.32;;;14.50;99.20;;;;;;7341467;19;110324;-86
2022/04/25 11:47:01;;;;;;;13.32;10.55;;;14.60;99.30;;;;;;7341447;19;111437;-85
2022/04/25 11:49:31;;;;;;;10.60;9.30;;;14.80;98.80;;;;;;7346373;19;110845;-85
2022/04/25 11:52:01;;;;;;;18.85;10.10;;;15.20;98.50;;;;;;7344476;19;110730;-86
2022/04/25 11:54:33;;;;;;;26.05;10.30;;;15.50;98.10;;;;;;7343648;19;111701;-85
2022/04/25 11:57:01;;;;;;;18.13;10.48;;;15.80;97.80;;;;;;7341461;19;109856;-85
2022/04/25 11:59:29;;;;;;;13.68;10.68;;;16.00;97.60;;;;;;7343087;19;114131;-85
2022/04/25 12:01:57;;;;;;;11.93;10.27;;;16.00;97.30;;;;;;7341911;19;114648;-85
2022/04/25 12:04:30;;;;;;;13.38;10.93;;;16.30;97.00;;;;;;7342574;19;109929;-85
2022/04/25 12:07:08;;;;;;;12.65;10.50;;;16.60;97.30;;;;;;7338984;19;111489;-84
2022/04/25 12:15:35;;;;;;;19.80;12.35;;;16.30;95.80;;;;;;7342658;19;112209;-85
2022/04/25 12:18:25;;;;;;;17.80;12.95;;;16.00;96.60;;;;;;7340727;19;110591;-85
2022/04/25 12:21:02;;;;;;;13.48;12.00;;;15.60;97.00;;;;;;7340874;19;110679;-85
2022/04/25 12:23:45;;;;;;;15.18;12.77;;;15.40;97.00;;;;;;7340251;19;112541;-85
2022/04/25 12:26:32;;;;;;;14.20;12.30;;;15.10;97.50;;;;;;7341940;19;113136;-85
2022/04/25 12:29:03;;;;;;;18.67;13.23;;;15.10;97.60;;;;;;7339966;19;111777;-85
2022/04/25 12:31:37;;;;;;;21.00;11.85;;;15.20;98.20;;;;;;7340991;19;111555;-86
2022/04/25 12:34:07;;;;;;;13.43;11.23;;;15.40;97.40;;;;;;7347016;19;110681;-85
2022/04/25 12:36:34;;;;;;;13.15;11.75;;;15.60;97.20;;;;;;7339670;19;111906;-84
2022/04/25 12:39:14;;;;;;;12.98;11.73;;;15.90;97.40;;;;;;7339543;19;109902;-85
2022/04/25 12:41:59;;;;;;;14.20;12.15;;;16.00;96.50;;;;;;7341235;19;110420;-85
2022/04/25 12:44:28;;;;;;;14.55;12.70;;;16.00;96.50;;;;;;7337352;19;111900;-85
2022/04/25 12:46:59;;;;;;;14.57;12.68;;;15.70;96.40;;;;;;7340013;19;110825;-86
2022/04/25 12:49:43;;;;;;;14.05;12.55;;;15.50;96.80;;;;;;7338295;19;110751;-85
2022/04/25 12:52:11;;;;;;;16.85;13.07;;;15.40;97.30;;;;;;7339339;19;114948;-85
2022/04/25 12:54:45;;;;;;;13.70;12.27;;;15.60;97.70;;;;;;7340642;19;110321;-85
2022/04/25 12:57:17;;;;;;;13.00;11.73;;;15.70;97.40;;;;;;7346482;19;110597;-85
2022/04/25 12:59:54;;;;;;;15.35;12.45;;;16.00;96.80;;;;;;7339422;19;109911;-85
2022/04/25 13:02:32;;;;;;;15.45;13.25;;;16.30;96.60;;;;;;7339713;19;111670;-85
2022/04/25 13:05:04;;;;;;;15.63;12.77;;;16.50;96.50;;;;;;7340504;19;113699;-85
2022/04/25 13:07:37;;;;;;;13.50;12.07;;;16.60;96.20;;;;;;7339995;19;110699;-85
2022/04/25 13:10:19;;;;;;;14.65;13.02;;;16.60;95.10;;;;;;7338060;19;111032;-85
2022/04/25 13:12:52;;;;;;;15.38;12.35;;;16.50;95.40;;;;;;7340700;19;112878;-85
2022/04/25 13:15:22;;;;;;;13.07;11.68;;;16.50;95.10;;;;;;7338740;19;110215;-85
2022/04/25 13:17:51;;;;;;;14.70;11.95;;;16.40;94.50;;;;;;7338882;19;111447;-85
2022/04/25 13:20:20;;;;;;;14.27;11.32;;;16.50;95.10;;;;;;7346970;19;115180;-86
2022/04/25 13:22:49;;;;;;;14.73;12.10;;;16.80;94.70;;;;;;7339734;19;110504;-85
2022/04/25 13:25:19;;;;;;;14.70;12.32;;;16.80;94.90;;;;;;7340711;19;112247;-85
2022/04/25 13:27:47;;;;;;;14.77;12.52;;;16.70;94.80;;;;;;7338797;19;110519;-86
2022/04/25 13:30:16;;;;;;;16.30;11.88;;;16.40;95.20;;;;;;7338571;19;111484;-86